sensor_id;sensor_type;location;lat;lon;timestamp;pressure;altitude;pressure_sealevel;temperature;humidity
82575;BME280;72260;65.870;13.210;2023-08-17T00:00:13;101556.25;;;12.51;73.30
82575;BME280;72260;65.870;13.210;2023-08-17T00:02:40;101559.50;;;12.40;74.42
82575;BME280;72260;65.870;13.210;2023-08-17T00:05:06;101576.28;;;12.56;73.61
82575;BME280;72260;65.870;13.210;2023-08-17T00:07:32;101574.47;;;12.41;73.63
82575;BME280;72260;65.870;13.210;2023-08-17T00:09:58;101578.41;;;12.34;73.79
82575;BME280;72260;65.870;13.210;2023-08-17T00:12:23;101578.75;;;12.28;74.41
82575;BME280;72260;65.870;13.210;2023-08-17T00:14:49;101579.34;;;12.33;73.45
82575;BME280;72260;65.870;13.210;2023-08-17T00:17:14;101583.69;;;12.18;73.68
82575;BME280;72260;65.870;13.210;2023-08-17T00:19:40;101572.91;;;12.21;75.81
82575;BME280;72260;65.870;13.210;2023-08-17T00:22:05;101600.75;;;12.45;74.03
82575;BME280;72260;65.870;13.210;2023-08-17T00:24:31;101599.16;;;12.59;72.14
82575;BME280;72260;65.870;13.210;2023-08-17T00:26:59;101603.03;;;12.36;73.16
82575;BME280;72260;65.870;13.210;2023-08-17T00:29:24;101598.09;;;12.45;73.25
82575;BME280;72260;65.870;13.210;2023-08-17T00:31:50;101609.13;;;12.38;73.63
82575;BME280;72260;65.870;13.210;2023-08-17T00:34:16;101610.75;;;12.40;73.57
82575;BME280;72260;65.870;13.210;2023-08-17T00:36:42;101615.97;;;12.42;73.77
82575;BME280;72260;65.870;13.210;2023-08-17T00:39:08;101609.16;;;12.54;73.06
82575;BME280;72260;65.870;13.210;2023-08-17T00:41:33;101609.72;;;12.43;72.55
82575;BME280;72260;65.870;13.210;2023-08-17T00:44:00;101620.25;;;12.44;72.58
82575;BME280;72260;65.870;13.210;2023-08-17T00:46:25;101620.59;;;12.38;73.02
82575;BME280;72260;65.870;13.210;2023-08-17T00:48:52;101628.63;;;12.37;73.31
82575;BME280;72260;65.870;13.210;2023-08-17T00:51:21;101627.91;;;12.51;72.60
82575;BME280;72260;65.870;13.210;2023-08-17T00:53:52;101617.22;;;12.35;73.04
82575;BME280;72260;65.870;13.210;2023-08-17T00:56:19;101619.94;;;12.51;72.65
82575;BME280;72260;65.870;13.210;2023-08-17T00:58:45;101622.25;;;12.57;72.89
82575;BME280;72260;65.870;13.210;2023-08-17T01:01:11;101618.78;;;12.39;72.68
82575;BME280;72260;65.870;13.210;2023-08-17T01:03:36;101631.34;;;12.35;73.27
82575;BME280;72260;65.870;13.210;2023-08-17T01:06:02;101634.78;;;12.37;73.27
82575;BME280;72260;65.870;13.210;2023-08-17T01:08:29;101637.19;;;12.42;72.99
82575;BME280;72260;65.870;13.210;2023-08-17T01:11:01;101642.63;;;12.23;73.27
82575;BME280;72260;65.870;13.210;2023-08-17T01:16:43;101647.38;;;12.34;73.42
82575;BME280;72260;65.870;13.210;2023-08-17T01:19:22;101641.28;;;12.32;73.33
82575;BME280;72260;65.870;13.210;2023-08-17T01:22:03;101646.13;;;12.57;72.69
82575;BME280;72260;65.870;13.210;2023-08-17T01:24:30;101641.16;;;12.51;72.70
82575;BME280;72260;65.870;13.210;2023-08-17T01:26:55;101643.00;;;12.33;73.43
82575;BME280;72260;65.870;13.210;2023-08-17T01:29:21;101651.78;;;12.51;72.75
82575;BME280;72260;65.870;13.210;2023-08-17T01:32:03;101655.91;;;12.39;73.00
82575;BME280;72260;65.870;13.210;2023-08-17T01:34:33;101650.84;;;12.52;71.50
82575;BME280;72260;65.870;13.210;2023-08-17T01:37:04;101648.72;;;12.74;70.72
82575;BME280;72260;65.870;13.210;2023-08-17T01:39:38;101658.41;;;12.75;69.65
82575;BME280;72260;65.870;13.210;2023-08-17T01:42:05;101661.66;;;12.31;73.75
82575;BME280;72260;65.870;13.210;2023-08-17T01:44:32;101654.81;;;12.43;72.83
82575;BME280;72260;65.870;13.210;2023-08-17T01:46:57;101665.66;;;12.38;71.02
82575;BME280;72260;65.870;13.210;2023-08-17T01:49:24;101663.16;;;12.53;71.20
82575;BME280;72260;65.870;13.210;2023-08-17T01:51:49;101663.38;;;12.15;73.31
82575;BME280;72260;65.870;13.210;2023-08-17T01:54:15;101669.63;;;12.14;74.49
82575;BME280;72260;65.870;13.210;2023-08-17T01:56:42;101675.97;;;12.44;71.12
82575;BME280;72260;65.870;13.210;2023-08-17T01:59:07;101680.69;;;12.22;70.86
82575;BME280;72260;65.870;13.210;2023-08-17T02:01:33;101686.13;;;12.36;71.65
82575;BME280;72260;65.870;13.210;2023-08-17T02:03:58;101685.69;;;12.28;72.93
82575;BME280;72260;65.870;13.210;2023-08-17T02:06:27;101693.94;;;12.22;72.01
82575;BME280;72260;65.870;13.210;2023-08-17T02:08:52;101692.47;;;12.17;72.62
82575;BME280;72260;65.870;13.210;2023-08-17T02:11:18;101700.19;;;12.21;73.46
82575;BME280;72260;65.870;13.210;2023-08-17T02:13:44;101701.34;;;12.16;73.64
82575;BME280;72260;65.870;13.210;2023-08-17T02:16:09;101708.44;;;12.15;73.24
82575;BME280;72260;65.870;13.210;2023-08-17T02:18:35;101690.78;;;11.98;71.94
82575;BME280;72260;65.870;13.210;2023-08-17T02:21:04;101703.00;;;12.01;72.59
82575;BME280;72260;65.870;13.210;2023-08-17T02:23:30;101697.84;;;12.15;71.88
82575;BME280;72260;65.870;13.210;2023-08-17T02:25:55;101708.53;;;12.14;72.11
82575;BME280;72260;65.870;13.210;2023-08-17T02:28:21;101718.34;;;12.11;72.27
82575;BME280;72260;65.870;13.210;2023-08-17T02:30:55;101716.09;;;12.04;72.26
82575;BME280;72260;65.870;13.210;2023-08-17T02:33:20;101698.94;;;11.94;72.59
82575;BME280;72260;65.870;13.210;2023-08-17T02:35:49;101717.31;;;11.80;73.08
82575;BME280;72260;65.870;13.210;2023-08-17T02:38:14;101715.69;;;11.77;72.65
82575;BME280;72260;65.870;13.210;2023-08-17T02:40:40;101718.81;;;11.85;71.97
82575;BME280;72260;65.870;13.210;2023-08-17T02:43:05;101723.25;;;11.85;72.00
82575;BME280;72260;65.870;13.210;2023-08-17T02:45:31;101735.78;;;11.81;72.16
82575;BME280;72260;65.870;13.210;2023-08-17T02:47:56;101727.50;;;12.23;69.84
82575;BME280;72260;65.870;13.210;2023-08-17T02:50:21;101742.28;;;11.93;70.36
82575;BME280;72260;65.870;13.210;2023-08-17T02:52:47;101737.78;;;11.95;72.97
82575;BME280;72260;65.870;13.210;2023-08-17T02:55:12;101740.28;;;11.98;70.10
82575;BME280;72260;65.870;13.210;2023-08-17T02:57:38;101738.66;;;11.76;71.83
82575;BME280;72260;65.870;13.210;2023-08-17T03:00:04;101742.88;;;11.81;71.43
82575;BME280;72260;65.870;13.210;2023-08-17T03:02:29;101744.53;;;11.83;71.33
82575;BME280;72260;65.870;13.210;2023-08-17T03:04:55;101749.38;;;11.73;71.93
82575;BME280;72260;65.870;13.210;2023-08-17T03:07:20;101754.63;;;11.94;70.49
82575;BME280;72260;65.870;13.210;2023-08-17T03:09:46;101758.84;;;11.79;71.76
82575;BME280;72260;65.870;13.210;2023-08-17T03:12:11;101763.81;;;11.68;71.79
82575;BME280;72260;65.870;13.210;2023-08-17T03:14:37;101759.19;;;11.90;70.96
82575;BME280;72260;65.870;13.210;2023-08-17T03:17:02;101763.78;;;11.87;70.71
82575;BME280;72260;65.870;13.210;2023-08-17T03:19:28;101755.53;;;11.74;71.65
82575;BME280;72260;65.870;13.210;2023-08-17T03:21:53;101771.31;;;11.77;71.45
82575;BME280;72260;65.870;13.210;2023-08-17T03:24:18;101753.16;;;11.69;71.12
82575;BME280;72260;65.870;13.210;2023-08-17T03:26:44;101763.66;;;11.90;71.70
82575;BME280;72260;65.870;13.210;2023-08-17T03:29:09;101766.50;;;11.85;70.09
82575;BME280;72260;65.870;13.210;2023-08-17T03:31:35;101773.16;;;11.94;71.05
82575;BME280;72260;65.870;13.210;2023-08-17T03:34:02;101775.75;;;11.95;71.51
82575;BME280;72260;65.870;13.210;2023-08-17T03:36:27;101770.16;;;12.01;72.24
82575;BME280;72260;65.870;13.210;2023-08-17T03:38:53;101791.28;;;12.20;70.57
82575;BME280;72260;65.870;13.210;2023-08-17T03:41:18;101790.00;;;12.10;70.23
82575;BME280;72260;65.870;13.210;2023-08-17T03:43:44;101792.66;;;12.10;71.42
82575;BME280;72260;65.870;13.210;2023-08-17T03:46:09;101792.97;;;12.04;71.33
82575;BME280;72260;65.870;13.210;2023-08-17T03:48:35;101797.34;;;12.05;71.34
82575;BME280;72260;65.870;13.210;2023-08-17T03:51:00;101803.97;;;11.96;71.09
82575;BME280;72260;65.870;13.210;2023-08-17T03:53:27;101799.75;;;12.09;70.74
82575;BME280;72260;65.870;13.210;2023-08-17T03:55:52;101812.06;;;11.93;70.58
82575;BME280;72260;65.870;13.210;2023-08-17T03:58:18;101802.19;;;12.14;71.34
82575;BME280;72260;65.870;13.210;2023-08-17T04:00:53;101801.47;;;12.10;69.05
82575;BME280;72260;65.870;13.210;2023-08-17T04:03:19;101796.72;;;12.00;69.84
82575;BME280;72260;65.870;13.210;2023-08-17T04:05:44;101803.97;;;11.96;71.53
82575;BME280;72260;65.870;13.210;2023-08-17T04:08:10;101808.34;;;11.97;71.88
82575;BME280;72260;65.870;13.210;2023-08-17T04:10:35;101809.34;;;12.12;71.25
82575;BME280;72260;65.870;13.210;2023-08-17T04:13:01;101804.91;;;12.13;69.60
82575;BME280;72260;65.870;13.210;2023-08-17T04:15:26;101819.00;;;11.96;70.03
82575;BME280;72260;65.870;13.210;2023-08-17T04:17:52;101813.25;;;12.05;69.63
82575;BME280;72260;65.870;13.210;2023-08-17T04:20:17;101815.41;;;12.33;68.85
82575;BME280;72260;65.870;13.210;2023-08-17T04:22:48;101810.63;;;12.22;67.44
82575;BME280;72260;65.870;13.210;2023-08-17T04:25:13;101816.78;;;12.23;69.30
82575;BME280;72260;65.870;13.210;2023-08-17T04:27:39;101813.22;;;12.24;66.69
82575;BME280;72260;65.870;13.210;2023-08-17T04:30:05;101824.22;;;12.33;68.13
82575;BME280;72260;65.870;13.210;2023-08-17T04:32:31;101822.28;;;12.54;65.77
82575;BME280;72260;65.870;13.210;2023-08-17T04:34:56;101828.34;;;12.56;66.27
82575;BME280;72260;65.870;13.210;2023-08-17T04:37:22;101835.06;;;12.63;68.28
82575;BME280;72260;65.870;13.210;2023-08-17T04:39:47;101814.13;;;12.40;69.38
82575;BME280;72260;65.870;13.210;2023-08-17T04:42:14;101834.38;;;12.60;68.53
82575;BME280;72260;65.870;13.210;2023-08-17T04:44:40;101833.41;;;12.78;66.70
82575;BME280;72260;65.870;13.210;2023-08-17T04:47:05;101828.56;;;12.69;68.64
82575;BME280;72260;65.870;13.210;2023-08-17T04:49:31;101845.44;;;12.68;68.90
82575;BME280;72260;65.870;13.210;2023-08-17T04:51:57;101840.28;;;12.48;69.56
82575;BME280;72260;65.870;13.210;2023-08-17T04:54:22;101828.09;;;12.43;70.91
82575;BME280;72260;65.870;13.210;2023-08-17T04:56:48;101829.28;;;12.38;69.40
82575;BME280;72260;65.870;13.210;2023-08-17T04:59:13;101838.16;;;12.37;68.80
82575;BME280;72260;65.870;13.210;2023-08-17T05:01:39;101843.72;;;12.32;68.15
82575;BME280;72260;65.870;13.210;2023-08-17T05:04:05;101858.38;;;12.74;66.52
82575;BME280;72260;65.870;13.210;2023-08-17T05:06:30;101861.34;;;12.68;67.73
82575;BME280;72260;65.870;13.210;2023-08-17T05:08:57;101864.97;;;12.67;66.21
82575;BME280;72260;65.870;13.210;2023-08-17T05:11:22;101855.66;;;12.58;66.36
82575;BME280;72260;65.870;13.210;2023-08-17T05:13:48;101873.00;;;12.65;67.09
82575;BME280;72260;65.870;13.210;2023-08-17T05:16:14;101875.16;;;12.74;67.10
82575;BME280;72260;65.870;13.210;2023-08-17T05:18:40;101871.19;;;12.83;68.14
82575;BME280;72260;65.870;13.210;2023-08-17T05:21:05;101880.31;;;12.77;67.26
82575;BME280;72260;65.870;13.210;2023-08-17T05:23:32;101891.19;;;12.56;69.73
82575;BME280;72260;65.870;13.210;2023-08-17T05:25:58;101888.81;;;12.50;70.78
82575;BME280;72260;65.870;13.210;2023-08-17T05:28:24;101897.41;;;12.72;69.16
82575;BME280;72260;65.870;13.210;2023-08-17T05:30:49;101904.94;;;12.64;69.36
82575;BME280;72260;65.870;13.210;2023-08-17T05:33:15;101909.59;;;12.59;69.33
82575;BME280;72260;65.870;13.210;2023-08-17T05:35:40;101908.09;;;12.70;68.93
82575;BME280;72260;65.870;13.210;2023-08-17T05:38:08;101915.22;;;12.70;68.78
82575;BME280;72260;65.870;13.210;2023-08-17T05:40:35;101920.69;;;12.84;68.88
82575;BME280;72260;65.870;13.210;2023-08-17T05:43:00;101922.16;;;12.72;69.63
82575;BME280;72260;65.870;13.210;2023-08-17T05:45:26;101919.59;;;12.71;69.81
82575;BME280;72260;65.870;13.210;2023-08-17T05:47:52;101921.16;;;12.75;68.41
82575;BME280;72260;65.870;13.210;2023-08-17T05:50:17;101930.84;;;12.93;68.66
82575;BME280;72260;65.870;13.210;2023-08-17T05:52:43;101936.94;;;12.95;69.23
82575;BME280;72260;65.870;13.210;2023-08-17T05:55:08;101933.41;;;12.77;67.43
82575;BME280;72260;65.870;13.210;2023-08-17T05:57:34;101940.38;;;12.80;67.70
82575;BME280;72260;65.870;13.210;2023-08-17T05:59:59;101943.72;;;12.84;69.42
82575;BME280;72260;65.870;13.210;2023-08-17T06:02:25;101934.75;;;13.03;65.83
82575;BME280;72260;65.870;13.210;2023-08-17T06:04:50;101944.88;;;12.78;67.59
82575;BME280;72260;65.870;13.210;2023-08-17T06:07:17;101948.72;;;12.90;66.50
82575;BME280;72260;65.870;13.210;2023-08-17T06:09:42;101951.38;;;13.07;66.16
82575;BME280;72260;65.870;13.210;2023-08-17T06:12:08;101961.59;;;12.80;65.95
82575;BME280;72260;65.870;13.210;2023-08-17T06:14:33;101957.56;;;12.90;66.42
82575;BME280;72260;65.870;13.210;2023-08-17T06:16:59;101961.75;;;12.77;69.80
82575;BME280;72260;65.870;13.210;2023-08-17T06:19:25;101959.16;;;12.75;66.18
82575;BME280;72260;65.870;13.210;2023-08-17T06:21:50;101960.22;;;12.90;66.56
82575;BME280;72260;65.870;13.210;2023-08-17T06:24:15;101968.00;;;12.76;65.93
82575;BME280;72260;65.870;13.210;2023-08-17T06:26:41;101973.34;;;12.57;67.33
82575;BME280;72260;65.870;13.210;2023-08-17T06:29:06;101966.34;;;12.73;67.63
82575;BME280;72260;65.870;13.210;2023-08-17T06:31:33;101980.31;;;12.77;66.71
82575;BME280;72260;65.870;13.210;2023-08-17T06:33:58;101973.84;;;12.83;65.96
82575;BME280;72260;65.870;13.210;2023-08-17T06:36:24;101985.41;;;12.64;66.91
82575;BME280;72260;65.870;13.210;2023-08-17T06:38:49;101986.06;;;12.87;66.41
82575;BME280;72260;65.870;13.210;2023-08-17T06:41:16;101986.19;;;12.84;66.45
82575;BME280;72260;65.870;13.210;2023-08-17T06:43:42;101986.63;;;12.93;66.95
82575;BME280;72260;65.870;13.210;2023-08-17T06:46:07;101983.00;;;13.11;65.66
82575;BME280;72260;65.870;13.210;2023-08-17T06:48:33;101992.22;;;13.04;66.13
82575;BME280;72260;65.870;13.210;2023-08-17T06:50:58;101995.09;;;13.00;65.09
82575;BME280;72260;65.870;13.210;2023-08-17T06:53:24;101995.22;;;12.98;64.99
82575;BME280;72260;65.870;13.210;2023-08-17T06:55:49;101998.53;;;13.02;66.78
82575;BME280;72260;65.870;13.210;2023-08-17T06:58:15;101998.31;;;12.89;65.93
82575;BME280;72260;65.870;13.210;2023-08-17T07:00:40;101985.25;;;13.02;66.03
82575;BME280;72260;65.870;13.210;2023-08-17T07:03:06;101999.31;;;13.04;66.55
82575;BME280;72260;65.870;13.210;2023-08-17T07:05:32;101995.50;;;13.09;65.90
82575;BME280;72260;65.870;13.210;2023-08-17T07:07:57;101999.97;;;13.09;65.38
82575;BME280;72260;65.870;13.210;2023-08-17T07:10:24;101998.84;;;13.32;66.29
82575;BME280;72260;65.870;13.210;2023-08-17T07:12:50;101986.78;;;13.42;65.44
82575;BME280;72260;65.870;13.210;2023-08-17T07:15:15;101994.81;;;13.58;65.63
82575;BME280;72260;65.870;13.210;2023-08-17T07:17:40;101995.53;;;13.44;63.59
82575;BME280;72260;65.870;13.210;2023-08-17T07:20:06;101997.06;;;13.65;64.33
82575;BME280;72260;65.870;13.210;2023-08-17T07:22:38;102002.84;;;13.73;64.31
82575;BME280;72260;65.870;13.210;2023-08-17T07:25:03;102000.25;;;13.72;63.26
82575;BME280;72260;65.870;13.210;2023-08-17T07:27:30;102006.09;;;13.96;62.55
82575;BME280;72260;65.870;13.210;2023-08-17T07:29:56;102004.38;;;13.95;60.10
82575;BME280;72260;65.870;13.210;2023-08-17T07:32:22;102002.06;;;13.71;60.93
82575;BME280;72260;65.870;13.210;2023-08-17T07:34:47;102015.47;;;13.35;62.94
82575;BME280;72260;65.870;13.210;2023-08-17T07:37:13;102022.13;;;13.27;63.14
82575;BME280;72260;65.870;13.210;2023-08-17T07:39:39;102015.53;;;13.34;63.46
82575;BME280;72260;65.870;13.210;2023-08-17T07:42:05;102023.91;;;13.61;63.07
82575;BME280;72260;65.870;13.210;2023-08-17T07:44:31;102026.97;;;13.19;62.30
82575;BME280;72260;65.870;13.210;2023-08-17T07:46:57;102032.19;;;13.37;64.04
82575;BME280;72260;65.870;13.210;2023-08-17T07:49:24;102013.34;;;13.42;62.48
82575;BME280;72260;65.870;13.210;2023-08-17T07:51:50;102018.50;;;13.62;61.68
82575;BME280;72260;65.870;13.210;2023-08-17T07:54:16;102031.78;;;13.62;62.47
82575;BME280;72260;65.870;13.210;2023-08-17T07:56:41;102037.09;;;13.45;62.01
82575;BME280;72260;65.870;13.210;2023-08-17T07:59:06;102043.09;;;13.66;63.65
82575;BME280;72260;65.870;13.210;2023-08-17T08:01:32;102040.75;;;14.10;62.33
82575;BME280;72260;65.870;13.210;2023-08-17T08:03:57;102045.59;;;13.69;62.04
82575;BME280;72260;65.870;13.210;2023-08-17T08:06:23;102049.88;;;13.89;62.59
82575;BME280;72260;65.870;13.210;2023-08-17T08:08:49;102049.81;;;13.73;62.66
82575;BME280;72260;65.870;13.210;2023-08-17T08:11:14;102059.91;;;13.66;64.09
82575;BME280;72260;65.870;13.210;2023-08-17T08:13:40;102047.75;;;13.62;63.71
82575;BME280;72260;65.870;13.210;2023-08-17T08:16:06;102056.81;;;13.58;61.87
82575;BME280;72260;65.870;13.210;2023-08-17T08:18:31;102049.91;;;13.71;63.08
82575;BME280;72260;65.870;13.210;2023-08-17T08:20:57;102058.50;;;13.76;63.66
82575;BME280;72260;65.870;13.210;2023-08-17T08:23:22;102059.69;;;13.54;61.94
82575;BME280;72260;65.870;13.210;2023-08-17T08:25:47;102071.88;;;13.40;62.99
82575;BME280;72260;65.870;13.210;2023-08-17T08:28:13;102070.47;;;13.68;62.87
82575;BME280;72260;65.870;13.210;2023-08-17T08:30:38;102069.84;;;13.80;62.11
82575;BME280;72260;65.870;13.210;2023-08-17T08:33:04;102072.25;;;13.85;61.09
82575;BME280;72260;65.870;13.210;2023-08-17T08:35:29;102066.94;;;13.67;62.09
82575;BME280;72260;65.870;13.210;2023-08-17T08:37:55;102080.72;;;13.58;61.86
82575;BME280;72260;65.870;13.210;2023-08-17T08:40:28;102057.69;;;13.59;61.85
82575;BME280;72260;65.870;13.210;2023-08-17T08:42:54;102061.31;;;13.73;61.20
82575;BME280;72260;65.870;13.210;2023-08-17T08:45:21;102080.09;;;13.88;60.79
82575;BME280;72260;65.870;13.210;2023-08-17T08:47:48;102071.88;;;13.75;63.96
82575;BME280;72260;65.870;13.210;2023-08-17T08:50:19;102087.84;;;14.08;63.33
82575;BME280;72260;65.870;13.210;2023-08-17T08:52:52;102088.00;;;14.05;62.14
82575;BME280;72260;65.870;13.210;2023-08-17T08:55:18;102088.56;;;14.11;59.39
82575;BME280;72260;65.870;13.210;2023-08-17T08:57:47;102091.44;;;14.07;60.99
82575;BME280;72260;65.870;13.210;2023-08-17T09:00:14;102088.38;;;14.15;60.96
82575;BME280;72260;65.870;13.210;2023-08-17T09:02:41;102086.03;;;13.75;61.22
82575;BME280;72260;65.870;13.210;2023-08-17T09:05:10;102092.47;;;14.04;62.13
82575;BME280;72260;65.870;13.210;2023-08-17T09:07:39;102096.13;;;13.86;62.55
82575;BME280;72260;65.870;13.210;2023-08-17T09:10:06;102090.44;;;14.09;60.02
82575;BME280;72260;65.870;13.210;2023-08-17T09:12:32;102098.56;;;14.24;60.29
82575;BME280;72260;65.870;13.210;2023-08-17T09:14:58;102087.59;;;13.97;59.78
82575;BME280;72260;65.870;13.210;2023-08-17T09:17:25;102100.22;;;14.09;59.62
82575;BME280;72260;65.870;13.210;2023-08-17T09:19:51;102080.69;;;14.26;60.24
82575;BME280;72260;65.870;13.210;2023-08-17T09:22:37;102095.44;;;14.31;57.88
82575;BME280;72260;65.870;13.210;2023-08-17T09:25:07;102086.22;;;14.05;60.17
82575;BME280;72260;65.870;13.210;2023-08-17T09:27:40;102106.78;;;14.19;59.82
82575;BME280;72260;65.870;13.210;2023-08-17T09:30:11;102088.22;;;14.18;60.04
82575;BME280;72260;65.870;13.210;2023-08-17T09:32:37;102076.72;;;14.17;57.45
82575;BME280;72260;65.870;13.210;2023-08-17T09:35:03;102101.63;;;14.16;59.45
82575;BME280;72260;65.870;13.210;2023-08-17T09:37:31;102103.88;;;14.06;57.96
82575;BME280;72260;65.870;13.210;2023-08-17T09:39:56;102086.28;;;14.04;57.18
82575;BME280;72260;65.870;13.210;2023-08-17T09:42:22;102092.47;;;14.37;58.45
82575;BME280;72260;65.870;13.210;2023-08-17T09:44:58;102098.09;;;14.31;57.71
82575;BME280;72260;65.870;13.210;2023-08-17T09:47:27;102106.00;;;14.17;58.00
82575;BME280;72260;65.870;13.210;2023-08-17T09:49:54;102109.34;;;14.21;58.10
82575;BME280;72260;65.870;13.210;2023-08-17T09:52:22;102114.59;;;14.22;57.01
82575;BME280;72260;65.870;13.210;2023-08-17T09:54:49;102107.78;;;14.17;57.19
82575;BME280;72260;65.870;13.210;2023-08-17T09:57:18;102122.66;;;14.03;57.91
82575;BME280;72260;65.870;13.210;2023-08-17T09:59:44;102121.97;;;14.33;55.92
82575;BME280;72260;65.870;13.210;2023-08-17T10:02:21;102123.28;;;14.26;58.31
82575;BME280;72260;65.870;13.210;2023-08-17T10:04:50;102128.31;;;14.48;56.97
82575;BME280;72260;65.870;13.210;2023-08-17T10:07:18;102126.63;;;14.29;56.62
82575;BME280;72260;65.870;13.210;2023-08-17T10:09:50;102120.50;;;14.44;54.69
82575;BME280;72260;65.870;13.210;2023-08-17T10:12:19;102123.94;;;14.47;56.00
82575;BME280;72260;65.870;13.210;2023-08-17T10:14:55;102126.59;;;14.47;55.04
82575;BME280;72260;65.870;13.210;2023-08-17T10:17:31;102140.06;;;14.43;56.12
82575;BME280;72260;65.870;13.210;2023-08-17T10:20:00;102134.19;;;14.37;56.11
82575;BME280;72260;65.870;13.210;2023-08-17T10:25:15;102127.28;;;14.17;55.40
82575;BME280;72260;65.870;13.210;2023-08-17T10:27:41;102144.03;;;14.19;55.50
82575;BME280;72260;65.870;13.210;2023-08-17T10:30:09;102146.94;;;14.30;57.82
82575;BME280;72260;65.870;13.210;2023-08-17T10:32:35;102143.34;;;14.31;57.05
82575;BME280;72260;65.870;13.210;2023-08-17T10:35:02;102147.31;;;14.07;55.88
82575;BME280;72260;65.870;13.210;2023-08-17T10:37:30;102132.28;;;14.23;54.61
82575;BME280;72260;65.870;13.210;2023-08-17T10:39:56;102156.66;;;14.31;56.12
82575;BME280;72260;65.870;13.210;2023-08-17T10:42:35;102147.31;;;14.40;55.84
82575;BME280;72260;65.870;13.210;2023-08-17T10:47:46;102152.94;;;14.18;56.49
82575;BME280;72260;65.870;13.210;2023-08-17T10:50:24;102150.47;;;14.48;59.06
82575;BME280;72260;65.870;13.210;2023-08-17T10:52:53;102161.56;;;14.39;55.35
82575;BME280;72260;65.870;13.210;2023-08-17T10:55:39;102160.69;;;14.23;55.66
82575;BME280;72260;65.870;13.210;2023-08-17T10:58:09;102147.72;;;14.32;56.65
82575;BME280;72260;65.870;13.210;2023-08-17T11:00:36;102142.00;;;14.73;56.40
82575;BME280;72260;65.870;13.210;2023-08-17T11:03:07;102150.59;;;14.78;54.80
82575;BME280;72260;65.870;13.210;2023-08-17T11:05:46;102163.72;;;14.50;54.97
82575;BME280;72260;65.870;13.210;2023-08-17T11:11:13;102160.03;;;14.68;54.58
82575;BME280;72260;65.870;13.210;2023-08-17T11:13:40;102166.44;;;14.31;55.81
82575;BME280;72260;65.870;13.210;2023-08-17T11:16:07;102172.47;;;14.52;55.51
82575;BME280;72260;65.870;13.210;2023-08-17T11:18:40;102166.47;;;14.64;56.44
82575;BME280;72260;65.870;13.210;2023-08-17T11:21:09;102176.25;;;14.63;55.48
82575;BME280;72260;65.870;13.210;2023-08-17T11:23:37;102178.28;;;14.42;56.59
82575;BME280;72260;65.870;13.210;2023-08-17T11:26:03;102181.69;;;14.62;56.01
82575;BME280;72260;65.870;13.210;2023-08-17T11:28:30;102169.41;;;14.75;54.13
82575;BME280;72260;65.870;13.210;2023-08-17T11:31:09;102175.31;;;14.64;57.26
82575;BME280;72260;65.870;13.210;2023-08-17T11:33:36;102181.50;;;14.65;56.73
82575;BME280;72260;65.870;13.210;2023-08-17T11:36:05;102176.06;;;14.33;57.38
82575;BME280;72260;65.870;13.210;2023-08-17T11:38:36;102177.97;;;14.64;56.84
82575;BME280;72260;65.870;13.210;2023-08-17T11:41:05;102178.44;;;14.72;57.88
82575;BME280;72260;65.870;13.210;2023-08-17T11:43:32;102192.44;;;14.76;56.86
82575;BME280;72260;65.870;13.210;2023-08-17T11:45:58;102204.41;;;15.00;54.65
82575;BME280;72260;65.870;13.210;2023-08-17T11:48:24;102191.94;;;14.85;55.28
82575;BME280;72260;65.870;13.210;2023-08-17T11:50:51;102197.28;;;14.85;54.63
82575;BME280;72260;65.870;13.210;2023-08-17T11:53:17;102177.34;;;14.92;56.37
82575;BME280;72260;65.870;13.210;2023-08-17T11:55:43;102206.97;;;15.02;54.97
82575;BME280;72260;65.870;13.210;2023-08-17T11:58:09;102214.34;;;14.81;53.85
82575;BME280;72260;65.870;13.210;2023-08-17T12:00:37;102216.41;;;14.43;54.98
82575;BME280;72260;65.870;13.210;2023-08-17T12:03:04;102210.38;;;14.72;54.03
82575;BME280;72260;65.870;13.210;2023-08-17T12:05:31;102218.75;;;14.82;55.66
82575;BME280;72260;65.870;13.210;2023-08-17T12:07:57;102218.00;;;14.63;55.25
82575;BME280;72260;65.870;13.210;2023-08-17T12:10:23;102213.50;;;14.81;55.61
82575;BME280;72260;65.870;13.210;2023-08-17T12:12:49;102214.19;;;15.00;55.58
82575;BME280;72260;65.870;13.210;2023-08-17T12:15:18;102222.72;;;14.91;55.15
82575;BME280;72260;65.870;13.210;2023-08-17T12:17:45;102223.56;;;14.91;53.91
82575;BME280;72260;65.870;13.210;2023-08-17T12:20:16;102199.94;;;15.01;54.80
82575;BME280;72260;65.870;13.210;2023-08-17T12:22:42;102229.47;;;14.81;54.94
82575;BME280;72260;65.870;13.210;2023-08-17T12:25:09;102210.50;;;14.36;56.03
82575;BME280;72260;65.870;13.210;2023-08-17T12:27:34;102230.66;;;14.75;55.74
82575;BME280;72260;65.870;13.210;2023-08-17T12:30:00;102240.03;;;14.82;55.79
82575;BME280;72260;65.870;13.210;2023-08-17T12:32:25;102235.00;;;14.93;53.69
82575;BME280;72260;65.870;13.210;2023-08-17T12:34:51;102245.81;;;14.90;56.02
82575;BME280;72260;65.870;13.210;2023-08-17T12:37:20;102234.66;;;14.66;56.16
82575;BME280;72260;65.870;13.210;2023-08-17T12:39:48;102228.06;;;14.73;54.06
82575;BME280;72260;65.870;13.210;2023-08-17T12:42:14;102234.56;;;14.85;54.47
82575;BME280;72260;65.870;13.210;2023-08-17T12:44:40;102239.72;;;14.88;55.58
82575;BME280;72260;65.870;13.210;2023-08-17T12:47:06;102235.94;;;14.92;56.08
82575;BME280;72260;65.870;13.210;2023-08-17T12:49:31;102229.81;;;14.74;54.81